Time;durP1;ratioP1;P1;durP2;ratioP2;P2;SDS_P1;SDS_P2;PMS_P1;PMS_P2;Temp;Humidity;BMP_temperature;BMP_pressure;BME280_temperature;BME280_humidity;BME280_pressure;Samples;Min_cycle;Max_cycle;Signal;HPM_P1;HPM_P2
2021/04/01 04:17:14;;;;;;;10.50;4.88;;;;;;;6.12;72.64;99099.28;5150341;23;20104;-69
2021/04/01 04:19:39;;;;;;;11.63;4.80;;;;;;;6.01;72.63;99100.94;4994342;28;20439;-69
2021/04/01 04:22:04;;;;;;;13.50;4.90;;;;;;;6.05;72.72;99102.69;4994149;28;20449;-69
2021/04/01 04:24:34;;;;;;;10.45;4.80;;;;;;;6.04;72.87;99100.94;4994148;28;20026;-69
2021/04/01 04:27:11;;;;;;;6.72;5.05;;;;;;;6.00;73.09;99094.09;4994112;28;20022;-69
2021/04/01 04:29:36;;;;;;;7.93;4.80;;;;;;;6.03;72.98;99104.38;4994449;28;20550;-69
2021/04/01 04:32:01;;;;;;;13.38;6.20;;;;;;;5.96;73.16;99097.47;4993911;28;20034;-69
2021/04/01 04:34:27;;;;;;;14.82;5.72;;;;;;;5.93;73.46;99104.31;4994077;28;20046;-69
2021/04/01 04:36:52;;;;;;;6.63;4.55;;;;;;;5.91;73.22;99111.16;4993824;28;20508;-68
2021/04/01 04:39:17;;;;;;;16.42;4.85;;;;;;;5.89;73.37;99107.69;4993916;28;20037;-68
2021/04/01 04:41:43;;;;;;;9.55;5.13;;;;;;;5.86;73.38;99112.81;4993724;28;20105;-68
2021/04/01 04:44:08;;;;;;;6.57;4.32;;;;;;;5.91;73.44;99105.13;4989215;28;20027;-68
2021/04/01 04:46:33;;;;;;;12.25;5.30;;;;;;;5.82;73.64;99111.06;4985401;28;20485;-68
2021/04/01 04:48:59;;;;;;;11.18;5.55;;;;;;;5.84;73.52;99119.66;4993799;28;20027;-70
2021/04/01 04:51:24;;;;;;;9.70;4.95;;;;;;;5.81;73.59;99111.94;4993531;28;20033;-69
2021/04/01 04:53:50;;;;;;;7.45;4.93;;;;;;;5.86;73.55;99117.97;4993630;28;20053;-69
2021/04/01 04:56:18;;;;;;;8.73;4.72;;;;;;;5.88;73.51;99116.25;4993533;28;20026;-69
2021/04/01 05:08:55;;;;;;;9.05;4.80;;;;;;;5.97;73.08;99120.63;4993449;28;20065;-68
2021/04/01 05:11:20;;;;;;;7.68;5.03;;;;;;;6.01;72.90;99121.50;4992941;28;20050;-69
2021/04/01 05:13:46;;;;;;;5.95;4.57;;;;;;;6.00;72.88;99120.66;4991180;28;20049;-68
2021/04/01 05:16:11;;;;;;;11.35;4.53;;;;;;;6.02;72.97;99129.22;4982445;28;20023;-68
2021/04/01 05:18:36;;;;;;;14.68;5.60;;;;;;;6.06;72.69;99130.13;4993143;28;20030;-68
2021/04/01 05:21:03;;;;;;;8.80;5.07;;;;;;;6.08;72.87;99128.41;4993113;28;20037;-68
2021/04/01 05:23:50;;;;;;;13.10;5.07;;;;;;;6.14;72.72;99125.84;4992858;28;20034;-68
2021/04/01 05:28:44;;;;;;;7.78;4.85;;;;;;;6.25;72.21;99131.94;4993231;28;20498;-68
2021/04/01 05:31:10;;;;;;;16.00;4.82;;;;;;;6.26;72.28;99138.78;4992792;28;20030;-68
2021/04/01 05:33:38;;;;;;;11.48;5.28;;;;;;;6.26;72.21;99133.66;4993003;28;20462;-68
2021/04/01 05:36:09;;;;;;;15.88;6.10;;;;;;;6.22;72.36;99141.34;4992712;28;20026;-68
2021/04/01 05:38:35;;;;;;;8.40;5.22;;;;;;;6.24;72.41;99140.50;4992677;28;20540;-69
2021/04/01 05:41:02;;;;;;;14.27;5.80;;;;;;;6.38;71.83;99141.44;4992885;28;20118;-69
2021/04/01 05:43:30;;;;;;;14.98;5.28;;;;;;;6.51;71.67;99144.06;4992779;28;20036;-68
2021/04/01 05:46:19;;;;;;;9.63;4.78;;;;;;;6.71;70.62;99144.97;4978484;28;20109;-69
2021/04/01 05:52:06;;;;;;;8.93;5.25;;;;;;;7.22;68.41;99148.56;4973456;28;20031;-69
2021/04/01 06:00:26;;;;;;;13.95;6.50;;;;;;;7.33;68.17;99148.56;4973548;28;20044;-70
2021/04/01 06:05:52;;;;;;;14.07;5.05;;;;;;;7.64;67.05;99150.31;4959575;28;20031;-69
2021/04/01 06:08:22;;;;;;;14.73;5.75;;;;;;;7.94;66.16;99149.41;4969832;28;20049;-69
2021/04/01 06:10:50;;;;;;;14.07;5.40;;;;;;;8.13;65.24;99149.38;4968594;28;20026;-70
2021/04/01 06:13:17;;;;;;;9.35;4.78;;;;;;;8.61;63.71;99147.53;4985509;28;20160;-69
2021/04/01 06:15:51;;;;;;;7.78;4.90;;;;;;;9.30;61.69;99144.56;4985012;28;20027;-69
2021/04/01 06:18:22;;;;;;;9.52;4.63;;;;;;;9.91;59.28;99141.47;4976175;28;20027;-69
2021/04/01 06:20:50;;;;;;;11.57;5.13;;;;;;;10.46;57.10;99131.41;4976639;28;20026;-69
2021/04/01 06:23:39;;;;;;;8.95;5.03;;;;;;;11.00;56.02;99136.75;4945027;28;20029;-69
2021/04/01 06:26:12;;;;;;;12.30;4.90;;;;;;;11.28;54.48;99132.03;4857113;28;20449;-69
2021/04/01 06:28:47;;;;;;;11.35;5.55;;;;;;;12.11;53.15;99130.69;4976783;28;20053;-69
2021/04/01 06:31:18;;;;;;;12.65;4.93;;;;;;;12.75;50.55;99128.53;4975702;28;20058;-69
2021/04/01 06:33:49;;;;;;;13.32;5.28;;;;;;;12.97;50.40;99124.59;4976820;28;20051;-69
2021/04/01 06:36:22;;;;;;;10.30;4.75;;;;;;;13.50;49.45;99124.28;4978566;28;20026;-69
2021/04/01 06:38:48;;;;;;;11.00;4.95;;;;;;;13.42;49.16;99132.25;4987929;28;20046;-69
2021/04/01 06:41:24;;;;;;;14.20;4.97;;;;;;;13.01;49.69;99134.06;4995413;28;20514;-69
2021/04/01 06:44:17;;;;;;;10.20;4.97;;;;;;;13.11;50.09;99127.75;4992489;28;20117;-69
2021/04/01 06:46:45;;;;;;;10.45;4.57;;;;;;;13.51;48.39;99126.84;4981183;28;20424;-69
2021/04/01 06:49:38;;;;;;;8.15;4.43;;;;;;;12.46;52.06;99127.41;4976235;28;20474;-69
2021/04/01 06:52:14;;;;;;;12.07;5.40;;;;;;;11.95;53.65;99130.13;4975904;28;20054;-69
2021/04/01 06:54:51;;;;;;;19.50;5.43;;;;;;;13.69;48.94;99120.34;4975330;28;20559;-69
2021/04/01 06:58:00;;;;;;;10.38;4.78;;;;;;;14.23;47.75;99111.97;4976071;28;20019;-69
2021/04/01 07:03:23;;;;;;;9.00;5.07;;;;;;;14.58;46.96;99107.53;4976114;28;20023;-69
2021/04/01 07:06:02;;;;;;;14.25;5.22;;;;;;;13.72;48.47;99115.03;4971419;28;20496;-69
2021/04/01 07:08:40;;;;;;;10.77;4.80;;;;;;;13.31;50.36;99116.06;4966236;28;20098;-69
2021/04/01 07:11:08;;;;;;;13.75;5.03;;;;;;;14.03;49.02;99109.91;4974423;28;20412;-69
2021/04/01 07:13:49;;;;;;;15.43;5.63;;;;;;;14.41;48.61;99105.41;4988928;28;20108;-69
2021/04/01 07:16:23;;;;;;;15.65;5.53;;;;;;;14.96;46.95;99102.94;4984597;28;20026;-69
2021/04/01 07:48:50;;;;;;;10.60;4.55;;;;;;;21.66;32.80;99105.81;4985354;28;20444;-71
2021/04/01 07:51:58;;;;;;;13.15;5.47;;;;;;;23.23;31.04;99105.88;4982919;28;20022;-72
2021/04/01 07:54:15;;;;;;;14.57;5.40;;;;;;;21.93;32.83;99102.47;4980796;28;20035;-72
2021/04/01 07:56:52;;;;;;;16.15;4.32;;;;;;;21.49;33.57;99103.28;4970613;28;20022;-72
2021/04/01 08:04:28;;;;;;;13.32;4.55;;;;;;;21.89;33.19;99106.25;4973916;28;20027;-72
2021/04/01 08:07:12;;;;;;;11.90;4.38;;;;;;;22.48;32.51;99091.25;4974878;28;20021;-72
2021/04/01 08:09:44;;;;;;;14.23;4.63;;;;;;;22.12;32.83;99092.56;4974847;28;20030;-72
2021/04/01 08:12:26;;;;;;;9.27;4.28;;;;;;;22.11;31.79;99096.16;4974757;28;20436;-72
2021/04/01 08:15:16;;;;;;;11.50;4.50;;;;;;;22.80;31.58;99083.97;4979268;28;20733;-72
2021/04/01 08:20:50;;;;;;;12.40;4.57;;;;;;;24.16;30.20;99087.41;4911797;29;20032;-72
2021/04/01 08:23:27;;;;;;;9.68;3.95;;;;;;;25.10;28.85;99085.19;4955460;28;20042;-72
2021/04/01 08:26:21;;;;;;;18.65;4.53;;;;;;;25.09;27.98;99086.13;4965520;28;20031;-72
2021/04/01 08:34:17;;;;;;;12.07;4.22;;;;;;;27.29;26.41;99070.94;4946821;29;20098;-72
2021/04/01 08:36:52;;;;;;;7.75;4.40;;;;;;;27.00;26.19;99073.28;4944522;28;20082;-70
2021/04/01 08:39:20;;;;;;;13.75;4.78;;;;;;;23.09;30.45;99090.06;4945632;28;20034;-70
2021/04/01 08:42:04;;;;;;;14.93;4.80;;;;;;;21.71;33.01;99089.69;4946515;29;20027;-70
2021/04/01 08:44:41;;;;;;;12.98;4.93;;;;;;;23.04;31.95;99086.88;4946444;28;20042;-70
2021/04/01 08:47:21;;;;;;;10.80;4.80;;;;;;;25.55;29.34;99080.09;4946547;28;20055;-70
2021/04/01 08:49:56;;;;;;;11.85;4.60;;;;;;;28.33;24.08;99073.66;4945666;29;20046;-70
2021/04/01 08:52:36;;;;;;;11.85;4.47;;;;;;;28.62;23.88;99072.97;4945475;28;20081;-72
2021/04/01 08:55:27;;;;;;;9.77;4.57;;;;;;;29.63;22.50;99058.56;4942245;28;20035;-70
2021/04/01 08:58:19;;;;;;;11.63;4.05;;;;;;;31.39;20.84;99061.28;4938457;28;20035;-72
2021/04/01 09:00:44;;;;;;;10.55;3.83;;;;;;;32.70;19.01;99067.56;4937704;28;20031;-72
2021/04/01 09:03:12;;;;;;;6.95;4.18;;;;;;;32.52;19.05;99053.41;4936367;28;20031;-73
2021/04/01 09:05:49;;;;;;;10.50;4.17;;;;;;;31.68;19.73;99060.19;4934797;28;21374;-72
2021/04/01 09:08:19;;;;;;;11.85;4.15;;;;;;;32.41;19.25;99063.41;4929738;28;20102;-73
2021/04/01 09:10:53;;;;;;;12.02;4.03;;;;;;;32.52;18.99;99064.13;4930240;28;22872;-73
2021/04/01 09:13:33;;;;;;;9.85;3.80;;;;;;;30.96;20.44;99065.50;4928899;28;20031;-73
2021/04/01 09:16:05;;;;;;;7.43;3.45;;;;;;;30.28;20.24;99056.09;4928067;28;20047;-73
2021/04/01 09:18:32;;;;;;;7.60;3.20;;;;;;;29.92;21.26;99054.03;4931033;28;20042;-73
2021/04/01 09:20:59;;;;;;;8.45;3.30;;;;;;;30.03;20.96;99057.53;4930123;28;20522;-73
2021/04/01 09:23:33;;;;;;;14.20;3.92;;;;;;;29.82;20.55;99047.84;4929647;28;20038;-73
2021/04/01 09:26:00;;;;;;;10.65;3.97;;;;;;;29.20;20.98;99046.44;4936888;28;20035;-73
2021/04/01 09:28:31;;;;;;;9.80;4.00;;;;;;;29.61;21.64;99044.53;4939271;28;20035;-72
2021/04/01 09:31:00;;;;;;;10.45;3.30;;;;;;;29.13;21.76;99051.50;4939549;28;20039;-74
2021/04/01 09:33:27;;;;;;;;;;;;;;;28.32;22.34;99055.97;4938151;28;20118;-72
2021/04/01 09:35:53;;;;;;;5.95;2.83;;;;;;;26.52;25.38;99049.66;4941536;28;19918;-72
2021/04/01 09:38:19;;;;;;;10.38;3.83;;;;;;;25.66;26.66;99055.41;4944719;28;20034;-74
2021/04/01 09:40:48;;;;;;;9.52;3.00;;;;;;;25.30;27.18;99055.41;4945375;28;20585;-74
2021/04/01 09:43:16;;;;;;;6.38;3.45;;;;;;;25.17;27.29;99044.00;4945289;28;20547;-74
2021/04/01 09:45:43;;;;;;;12.20;3.40;;;;;;;26.52;26.27;99052.31;4945414;28;20046;-74
2021/04/01 09:48:13;;;;;;;8.98;3.20;;;;;;;27.95;23.64;99047.66;4944526;28;20488;-75
2021/04/01 09:50:42;;;;;;;8.80;3.05;;;;;;;28.88;22.80;99052.00;4944770;28;20123;-74
2021/04/01 09:53:14;;;;;;;7.57;3.00;;;;;;;28.31;23.90;99048.13;4944802;28;20034;-74
2021/04/01 09:55:42;;;;;;;6.68;3.03;;;;;;;30.28;21.94;99046.25;4944022;28;20441;-72
2021/04/01 09:58:17;;;;;;;12.00;3.22;;;;;;;31.38;20.36;99048.91;4945302;28;20531;-72
2021/04/01 10:01:02;;;;;;;15.10;3.67;;;;;;;31.64;20.18;99040.06;4944392;29;20027;-73
2021/04/01 10:03:33;;;;;;;12.40;3.58;;;;;;;29.88;22.74;99041.09;4945230;29;20031;-72
2021/04/01 10:05:59;;;;;;;16.73;3.20;;;;;;;30.54;21.03;99033.03;4945204;28;20686;-72
2021/04/01 10:08:26;;;;;;;9.20;3.03;;;;;;;29.59;21.42;99030.44;4943950;29;20049;-72
2021/04/01 10:10:58;;;;;;;7.70;3.05;;;;;;;29.14;22.63;99031.00;4945039;28;20113;-72
2021/04/01 10:13:26;;;;;;;7.15;3.40;;;;;;;29.02;22.55;99029.47;4944272;29;20058;-72
2021/04/01 10:15:53;;;;;;;13.73;4.22;;;;;;;31.37;20.24;99030.28;4945242;28;20031;-72
2021/04/01 10:18:24;;;;;;;6.43;3.17;;;;;;;31.70;21.24;99016.16;4944839;28;20114;-72
2021/04/01 10:20:58;;;;;;;10.80;4.10;;;;;;;32.34;18.96;99013.22;4944640;28;20031;-73
2021/04/01 10:23:24;;;;;;;9.55;3.30;;;;;;;32.30;19.62;99010.03;4944220;28;20034;-72
2021/04/01 10:25:56;;;;;;;10.10;4.70;;;;;;;33.11;18.44;99012.16;4944596;28;20508;-73
2021/04/01 10:29:06;;;;;;;9.95;3.65;;;;;;;32.62;19.08;99011.19;4989044;23;20489;-71
2021/04/01 10:31:13;;;;;;;10.60;3.40;;;;;;;33.11;18.21;98995.22;4954507;28;20054;-71
2021/04/01 10:33:53;;;;;;;13.55;3.17;;;;;;;31.78;19.89;98995.78;4964526;28;20407;-71
2021/04/01 10:36:27;;;;;;;9.00;3.58;;;;;;;30.80;20.82;98995.75;4963339;28;20042;-71
2021/04/01 10:39:06;;;;;;;5.53;3.13;;;;;;;32.06;20.50;98991.09;4964227;28;20034;-71
2021/04/01 10:41:42;;;;;;;7.32;2.53;;;;;;;32.29;19.21;98977.97;4964070;28;20388;-71
2021/04/01 10:44:09;;;;;;;9.40;3.10;;;;;;;31.65;20.33;98974.75;4963966;28;20053;-71
2021/04/01 10:46:35;;;;;;;13.32;3.45;;;;;;;32.01;19.78;98971.97;4962495;28;20025;-71
2021/04/01 10:49:02;;;;;;;12.80;3.63;;;;;;;29.42;22.45;98968.75;4963519;28;20407;-71
2021/04/01 10:51:27;;;;;;;10.23;3.15;;;;;;;32.69;19.41;98963.91;4963844;28;20031;-71
2021/04/01 10:53:53;;;;;;;6.50;3.22;;;;;;;31.72;20.06;98970.47;4964012;28;20041;-71
2021/04/01 10:56:18;;;;;;;9.15;3.50;;;;;;;31.30;20.27;98968.47;4957897;28;20121;-71
2021/04/01 10:58:48;;;;;;;12.68;3.67;;;;;;;31.52;20.46;98960.91;4963281;28;21284;-71
2021/04/01 11:01:17;;;;;;;12.88;2.90;;;;;;;31.69;20.49;98952.84;4966828;28;20110;-72
2021/04/01 11:03:45;;;;;;;9.57;3.05;;;;;;;30.73;21.76;98961.72;4967331;28;20026;-71
2021/04/01 11:06:12;;;;;;;10.65;3.47;;;;;;;29.40;24.23;98946.69;4967065;28;20034;-70
2021/04/01 11:08:43;;;;;;;12.52;2.88;;;;;;;30.94;21.43;98943.50;4967434;28;20054;-70
2021/04/01 11:11:09;;;;;;;6.15;2.92;;;;;;;31.12;20.90;98946.19;4966370;28;20038;-70
2021/04/01 11:13:40;;;;;;;8.13;2.70;;;;;;;31.02;20.87;98950.78;4967272;28;20050;-71
2021/04/01 11:16:08;;;;;;;5.85;2.92;;;;;;;28.41;23.79;98953.06;4967244;28;20031;-70
2021/04/01 11:18:35;;;;;;;6.53;2.47;;;;;;;28.87;24.34;98933.78;4967383;28;20109;-70
2021/04/01 11:21:02;;;;;;;5.43;2.50;;;;;;;30.66;21.70;98929.34;4967180;28;20035;-70
2021/04/01 11:23:28;;;;;;;5.88;2.78;;;;;;;32.62;19.33;98925.31;4966312;28;20567;-70
2021/04/01 11:25:59;;;;;;;8.60;2.95;;;;;;;29.83;21.95;98926.63;4966350;28;20035;-70
2021/04/01 11:28:40;;;;;;;4.57;2.15;;;;;;;30.81;21.33;98925.19;4966939;28;20113;-70
2021/04/01 11:31:09;;;;;;;9.93;2.78;;;;;;;31.18;21.79;98924.97;4967078;28;20031;-70
2021/04/01 11:33:38;;;;;;;9.20;2.50;;;;;;;31.19;21.24;98915.13;4965618;28;20034;-70
2021/04/01 11:36:14;;;;;;;4.90;2.17;;;;;;;30.92;21.20;98924.94;4966169;28;20771;-70
2021/04/01 11:38:44;;;;;;;13.05;5.05;;;;;;;30.58;21.26;98921.22;4966825;28;20121;-70
2021/04/01 11:41:17;;;;;;;10.15;2.83;;;;;;;30.23;22.24;98914.84;4966814;28;20034;-70
2021/04/01 11:43:48;;;;;;;8.70;3.30;;;;;;;29.66;22.95;98914.06;4966946;28;20526;-70
2021/04/01 11:46:27;;;;;;;5.13;2.38;;;;;;;30.31;22.06;98909.56;4966817;28;20124;-70
2021/04/01 11:48:55;;;;;;;10.63;2.92;;;;;;;31.41;21.50;98898.56;4951190;28;20066;-70
2021/04/01 11:51:25;;;;;;;9.02;3.10;;;;;;;32.67;19.58;98890.75;4950988;28;20109;-70
2021/04/01 11:53:51;;;;;;;9.98;3.22;;;;;;;31.11;20.90;98896.31;4966050;28;20117;-70
2021/04/01 11:56:18;;;;;;;11.15;2.88;;;;;;;32.04;20.65;98894.75;4966343;28;20109;-70
2021/04/01 11:58:43;;;;;;;7.72;2.90;;;;;;;31.54;20.73;98884.78;4966200;28;20501;-71
2021/04/01 12:01:20;;;;;;;6.03;2.40;;;;;;;31.22;21.71;98888.03;4960062;28;20037;-71
2021/04/01 12:06:16;;;;;;;7.03;3.00;;;;;;;32.42;19.62;98882.66;4965747;28;20511;-71
2021/04/01 12:08:41;;;;;;;14.10;2.67;;;;;;;32.37;19.83;98879.63;4966282;28;20122;-71
2021/04/01 12:11:07;;;;;;;7.57;2.28;;;;;;;32.16;20.47;98871.19;4980674;28;20113;-71
2021/04/01 12:13:32;;;;;;;10.52;3.13;;;;;;;29.03;23.89;98876.38;4965627;28;20033;-71
2021/04/01 12:15:58;;;;;;;10.52;3.20;;;;;;;28.26;24.26;98885.94;4965851;28;20058;-71
2021/04/01 12:18:24;;;;;;;14.43;3.28;;;;;;;27.46;24.78;98875.22;4962232;28;20030;-73
2021/04/01 12:20:49;;;;;;;6.15;3.25;;;;;;;27.06;26.81;98874.13;4960250;28;21675;-71
2021/04/01 12:23:21;;;;;;;8.05;3.10;;;;;;;26.71;27.40;98869.09;4964167;28;20030;-71
2021/04/01 12:25:49;;;;;;;10.20;5.63;;;;;;;26.91;27.52;98870.94;4965936;28;20331;-71
2021/04/01 12:28:22;;;;;;;5.40;2.73;;;;;;;26.30;27.24;98865.34;4964492;28;20550;-71
2021/04/01 12:30:50;;;;;;;7.30;2.88;;;;;;;26.19;27.93;98861.88;4966117;28;20038;-71
2021/04/01 12:33:21;;;;;;;9.73;3.20;;;;;;;24.93;28.98;98860.19;4965734;28;20026;-71
2021/04/01 12:35:54;;;;;;;7.40;3.67;;;;;;;23.96;30.58;98858.47;4964801;28;20117;-71
2021/04/01 12:38:35;;;;;;;11.30;3.53;;;;;;;25.23;29.43;98844.59;4964705;28;20484;-71
2021/04/01 12:41:06;;;;;;;9.45;2.63;;;;;;;25.55;29.21;98851.88;4965897;28;20038;-71
2021/04/01 12:43:44;;;;;;;5.32;2.80;;;;;;;26.25;26.85;98845.41;4965544;28;20046;-71
2021/04/01 12:46:09;;;;;;;6.80;3.15;;;;;;;26.36;27.20;98848.06;4965456;28;20026;-71
2021/04/01 12:48:41;;;;;;;11.40;2.88;;;;;;;24.75;29.75;98844.69;4965038;28;20031;-71
2021/04/01 12:51:09;;;;;;;8.20;2.90;;;;;;;25.56;28.87;98842.94;4964499;28;20117;-71
2021/04/01 12:53:35;;;;;;;7.88;2.90;;;;;;;25.79;28.32;98844.66;4965619;28;20030;-71
2021/04/01 12:56:25;;;;;;;7.35;3.20;;;;;;;26.13;28.04;98841.97;4965413;28;20031;-71
2021/04/01 12:58:56;;;;;;;8.57;2.80;;;;;;;26.62;26.57;98827.31;4964139;28;20047;-71
2021/04/01 13:03:48;;;;;;;11.88;2.80;;;;;;;25.16;28.04;98832.78;4965405;28;20089;-71
2021/04/01 13:07:08;;;;;;;9.13;2.83;;;;;;;24.32;30.65;98839.94;4965212;28;20038;-71
2021/04/01 13:09:23;;;;;;;10.60;3.10;;;;;;;24.14;29.79;98835.97;4957923;28;20405;-71
2021/04/01 13:11:45;;;;;;;15.30;3.45;;;;;;;24.09;30.30;98831.00;4964201;28;20105;-72
2021/04/01 13:14:10;;;;;;;11.20;3.05;;;;;;;24.25;30.74;98833.38;4965285;28;20038;-71
2021/04/01 13:16:36;;;;;;;13.70;3.22;;;;;;;23.99;30.64;98823.84;4965202;28;20154;-71
2021/04/01 13:19:02;;;;;;;5.60;2.47;;;;;;;24.11;30.24;98825.59;4979668;28;20050;-72
2021/04/01 13:21:51;;;;;;;8.20;2.83;;;;;;;24.84;28.96;98827.25;4963829;28;20489;-72
2021/04/01 13:26:46;;;;;;;5.95;2.58;;;;;;;25.26;30.20;98820.50;4965174;28;20035;-71
2021/04/01 13:29:12;;;;;;;14.60;3.00;;;;;;;24.42;29.57;98818.06;4979510;28;20045;-71
2021/04/01 13:31:44;;;;;;;9.82;2.90;;;;;;;23.74;29.81;98817.66;4964966;28;20039;-71
2021/04/01 13:34:37;;;;;;;7.05;3.10;;;;;;;23.24;30.46;98819.38;4964065;28;20026;-72
2021/04/01 13:39:42;;;;;;;16.83;3.05;;;;;;;24.63;29.03;98810.34;4964550;28;20114;-72
2021/04/01 13:42:12;;;;;;;16.80;3.42;;;;;;;24.52;30.09;98813.78;4963476;28;20503;-72
2021/04/01 13:44:48;;;;;;;12.32;3.00;;;;;;;24.17;30.63;98811.91;4964317;28;20065;-72
2021/04/01 13:47:13;;;;;;;11.07;3.95;;;;;;;24.64;29.79;98810.22;4964409;28;20054;-72
2021/04/01 13:49:40;;;;;;;9.23;3.15;;;;;;;24.27;30.68;98805.00;4979683;28;21107;-72
2021/04/01 13:57:47;;;;;;;8.98;3.58;;;;;;;23.54;30.57;98815.53;4963762;28;20499;-71
2021/04/01 14:11:16;;;;;;;7.57;3.47;;;;;;;23.27;31.26;98797.19;4964386;28;20097;-72
2021/04/01 14:13:42;;;;;;;11.43;4.22;;;;;;;23.02;31.11;98798.03;4963006;28;20034;-71
2021/04/01 14:16:08;;;;;;;5.70;3.45;;;;;;;23.52;30.79;98796.31;4961973;28;20038;-72
2021/04/01 14:18:37;;;;;;;16.92;3.80;;;;;;;23.48;30.64;98795.66;4963379;28;20380;-72
2021/04/01 14:21:04;;;;;;;6.32;3.63;;;;;;;23.79;30.12;98794.38;4977595;28;20313;-72
2021/04/01 14:23:33;;;;;;;14.40;4.00;;;;;;;23.74;30.09;98785.91;4963519;28;20042;-71
2021/04/01 14:26:03;;;;;;;8.95;3.38;;;;;;;24.39;29.81;98786.53;4963017;28;20027;-72
2021/04/01 14:28:28;;;;;;;10.77;4.00;;;;;;;24.52;28.46;98782.84;4964566;28;20030;-71
2021/04/01 14:30:55;;;;;;;7.03;3.58;;;;;;;24.22;29.45;98779.78;4964490;28;20042;-72
2021/04/01 14:33:22;;;;;;;8.48;3.75;;;;;;;23.75;28.81;98787.59;4965035;28;20031;-72
2021/04/01 14:35:48;;;;;;;12.88;3.22;;;;;;;24.26;28.14;98787.38;4964976;28;20058;-72
2021/04/01 14:38:16;;;;;;;9.75;3.78;;;;;;;24.30;27.87;98783.56;4966468;28;20077;-72
2021/04/01 14:40:55;;;;;;;8.85;3.50;;;;;;;24.52;27.92;98782.84;4966510;28;20447;-72
2021/04/01 14:43:26;;;;;;;11.10;4.05;;;;;;;23.68;28.40;98781.03;4966540;28;20060;-72
2021/04/01 14:45:51;;;;;;;16.38;4.20;;;;;;;23.56;28.34;98773.97;4966404;28;20046;-72
2021/04/01 14:48:17;;;;;;;5.82;3.50;;;;;;;23.19;29.48;98781.84;4962995;28;20023;-72
2021/04/01 14:50:43;;;;;;;15.10;4.28;;;;;;;23.35;28.79;98776.31;4956245;28;20034;-72
2021/04/01 14:53:17;;;;;;;8.85;3.92;;;;;;;23.51;29.30;98770.81;4952388;28;20520;-71
2021/04/01 14:55:43;;;;;;;15.15;4.10;;;;;;;24.15;28.47;98758.22;4950909;28;20034;-72
2021/04/01 14:58:10;;;;;;;10.07;3.20;;;;;;;24.40;28.07;98767.03;4942099;28;20392;-73
2021/04/01 15:00:40;;;;;;;12.60;3.10;;;;;;;24.29;28.22;98762.50;4942004;28;20053;-72
2021/04/01 15:03:06;;;;;;;5.53;3.20;;;;;;;23.78;28.85;98771.50;4935903;28;20027;-72
2021/04/01 15:05:34;;;;;;;9.95;3.35;;;;;;;23.76;29.09;98770.75;4939030;28;20050;-72
2021/04/01 15:08:03;;;;;;;8.13;3.47;;;;;;;23.65;29.31;98776.00;4937288;28;20109;-72
2021/04/01 15:10:28;;;;;;;16.67;3.45;;;;;;;23.08;30.04;98779.09;4935669;28;20038;-72
2021/04/01 15:12:54;;;;;;;8.02;2.85;;;;;;;23.24;30.05;98766.50;4939265;28;20057;-72
2021/04/01 15:15:20;;;;;;;13.63;3.90;;;;;;;23.28;30.33;98775.91;4931797;28;20045;-72
2021/04/01 15:17:47;;;;;;;14.30;2.97;;;;;;;23.23;30.45;98780.69;4919682;28;20109;-72
2021/04/01 15:20:13;;;;;;;6.55;2.88;;;;;;;22.99;30.60;98777.94;4931416;28;20524;-72
2021/04/01 15:22:38;;;;;;;12.18;3.30;;;;;;;22.74;30.19;98772.63;4930179;28;20038;-73
2021/04/01 15:25:04;;;;;;;8.88;2.70;;;;;;;23.20;29.97;98765.00;4911687;28;20624;-72
2021/04/01 15:27:30;;;;;;;8.38;3.40;;;;;;;23.17;30.39;98770.53;4930328;28;20114;-73
2021/04/01 15:29:59;;;;;;;10.00;3.00;;;;;;;23.33;29.85;98765.00;4928412;28;20039;-73
2021/04/01 15:32:25;;;;;;;7.40;3.15;;;;;;;22.96;29.58;98769.38;4929221;28;20027;-73
2021/04/01 15:34:51;;;;;;;7.75;3.40;;;;;;;22.82;29.61;98760.56;4912044;28;20038;-73
2021/04/01 15:37:17;;;;;;;12.27;3.13;;;;;;;22.35;30.34;98765.56;4909319;28;20469;-72
2021/04/01 15:39:45;;;;;;;8.07;2.80;;;;;;;22.43;30.18;98763.25;4912627;28;20037;-73
2021/04/01 15:42:16;;;;;;;11.07;3.57;;;;;;;22.18;30.81;98770.16;4913687;28;20105;-73
2021/04/01 15:44:47;;;;;;;7.88;2.63;;;;;;;22.28;30.71;98771.25;4904569;28;20070;-73
2021/04/01 15:47:12;;;;;;;12.57;3.10;;;;;;;22.00;30.99;98768.66;4923905;28;20499;-73
2021/04/01 15:49:38;;;;;;;9.77;3.35;;;;;;;21.88;31.80;98783.50;4902118;28;20047;-77
2021/04/01 15:52:04;;;;;;;11.15;3.45;;;;;;;22.25;30.70;98766.19;4900583;28;20049;-76
2021/04/01 15:54:29;;;;;;;8.57;3.53;;;;;;;22.48;31.39;98771.72;4912983;28;20085;-76
2021/04/01 15:56:54;;;;;;;8.63;3.10;;;;;;;22.46;31.17;98758.63;4912816;28;20922;-76
2021/04/01 15:59:20;;;;;;;14.90;3.95;;;;;;;22.47;30.90;98764.75;4909735;28;20125;-73
2021/04/01 16:01:46;;;;;;;17.70;4.68;;;;;;;22.30;30.49;98764.09;4906592;28;20027;-73
2021/04/01 16:04:11;;;;;;;10.13;4.95;;;;;;;22.06;30.76;98768.28;4912530;28;20054;-74
2021/04/01 16:06:37;;;;;;;9.57;4.55;;;;;;;22.46;29.93;98765.69;4909409;28;20071;-74
2021/04/01 16:09:02;;;;;;;13.50;5.40;;;;;;;22.12;30.18;98765.28;4900113;28;20038;-74
2021/04/01 16:11:28;;;;;;;14.63;4.43;;;;;;;22.31;30.64;98763.13;4897655;28;20031;-74
2021/04/01 16:13:55;;;;;;;12.77;5.60;;;;;;;22.23;30.58;98762.78;4901801;28;20058;-72
2021/04/01 16:16:20;;;;;;;12.52;6.15;;;;;;;22.27;29.28;98759.00;4918001;28;20117;-75
2021/04/01 16:18:48;;;;;;;43.17;23.60;;;;;;;22.21;29.24;98758.56;4906794;28;20498;-69
2021/04/01 16:21:13;;;;;;;17.33;6.15;;;;;;;22.17;30.22;98763.19;4922103;28;20022;-68
2021/04/01 16:23:39;;;;;;;16.10;6.90;;;;;;;21.96;30.69;98764.56;4918442;28;20403;-69
2021/04/01 16:26:04;;;;;;;14.90;7.07;;;;;;;21.95;29.67;98763.72;4930211;28;21597;-69
2021/04/01 16:28:30;;;;;;;16.25;6.50;;;;;;;21.89;30.90;98763.25;4961238;23;20057;-73
2021/04/01 16:30:56;;;;;;;16.75;8.43;;;;;;;21.73;30.60;98758.13;4934635;28;20451;-72
2021/04/01 16:33:22;;;;;;;20.65;7.57;;;;;;;21.83;30.02;98763.66;4937829;28;20038;-72
2021/04/01 16:35:50;;;;;;;15.63;6.80;;;;;;;21.78;31.33;98762.16;4940941;28;20030;-72
2021/04/01 16:38:16;;;;;;;16.77;7.38;;;;;;;21.83;30.53;98761.03;4932496;28;21281;-73
2021/04/01 16:40:42;;;;;;;21.75;7.40;;;;;;;21.53;31.05;98762.03;4930308;28;20122;-73
2021/04/01 16:43:08;;;;;;;21.38;7.45;;;;;;;21.59;31.41;98761.63;4925578;28;20113;-73
2021/04/01 16:45:33;;;;;;;20.05;7.72;;;;;;;21.42;31.97;98759.19;4920246;28;20105;-73
2021/04/01 16:47:59;;;;;;;21.77;9.70;;;;;;;21.23;31.46;98762.13;4917750;28;20027;-73
2021/04/01 16:50:25;;;;;;;25.42;12.00;;;;;;;21.05;31.58;98753.56;4938967;28;21830;-78
2021/04/01 16:53:00;;;;;;;22.25;9.23;;;;;;;21.19;32.26;98757.97;4938536;28;20031;-73
2021/04/01 16:55:29;;;;;;;23.75;11.32;;;;;;;21.01;31.68;98765.22;4937292;28;20139;-73
2021/04/01 16:57:56;;;;;;;27.98;12.85;;;;;;;21.05;31.58;98762.31;4936563;28;20499;-73
2021/04/01 17:00:21;;;;;;;20.85;10.65;;;;;;;20.75;32.43;98758.91;4938238;28;20113;-73
2021/04/01 17:02:47;;;;;;;26.73;12.73;;;;;;;20.88;32.06;98761.63;4948859;28;20391;-72
2021/04/01 17:05:12;;;;;;;24.85;11.77;;;;;;;20.61;32.47;98762.34;4951279;28;20078;-73
2021/04/01 17:07:38;;;;;;;25.30;12.27;;;;;;;20.57;32.45;98754.72;4952422;28;20023;-69
2021/04/01 17:10:06;;;;;;;23.80;12.13;;;;;;;20.56;32.97;98756.50;4959160;28;20081;-69
2021/04/01 17:12:31;;;;;;;28.92;12.50;;;;;;;20.57;33.13;98759.97;4959058;28;20027;-69
2021/04/01 17:14:57;;;;;;;21.77;11.23;;;;;;;20.50;33.49;98764.75;4964302;28;20097;-69
2021/04/01 17:17:23;;;;;;;22.88;11.60;;;;;;;20.46;33.70;98765.84;4965486;28;20113;-69
2021/04/01 17:19:48;;;;;;;22.45;12.15;;;;;;;20.22;34.03;98766.34;4965609;28;20431;-69
2021/04/01 17:22:13;;;;;;;25.67;14.02;;;;;;;20.17;34.57;98768.38;4965135;28;20037;-70
2021/04/01 17:24:39;;;;;;;32.03;14.27;;;;;;;20.21;34.45;98767.28;4965337;28;20030;-70
2021/04/01 17:27:04;;;;;;;28.33;13.70;;;;;;;19.86;35.24;98763.16;4965224;28;20019;-71
2021/04/01 17:29:30;;;;;;;26.77;12.07;;;;;;;19.87;35.40;98764.84;4964887;28;20419;-71
2021/04/01 17:31:55;;;;;;;35.80;16.02;;;;;;;19.58;36.19;98775.19;4965209;28;20073;-73
2021/04/01 17:34:20;;;;;;;33.47;14.07;;;;;;;19.81;34.98;98778.34;4965061;28;20027;-67
2021/04/01 17:36:46;;;;;;;33.75;13.68;;;;;;;19.57;35.43;98780.50;4965220;28;20069;-70